Time;durP1;ratioP1;P1;durP2;ratioP2;P2;SDS_P1;SDS_P2;PMS_P1;PMS_P2;Temp;Humidity;BMP_temperature;BMP_pressure;BME280_temperature;BME280_humidity;BME280_pressure;Samples;Min_cycle;Max_cycle;Signal;HPM_P1;HPM_P2
2022/04/01 00:00:55;;;;;;;23.30;11.60;;;;;;;11.73;82.43;96986.31;1726238;82;20984;-80
2022/04/01 00:03:22;;;;;;;27.58;11.55;;;;;;;11.74;82.35;96989.30;1730388;83;21000;-83
2022/04/01 00:05:48;;;;;;;35.03;12.50;;;;;;;11.74;84.62;96984.58;1755419;81;21014;-81
2022/04/01 00:08:15;;;;;;;27.00;11.95;;;;;;;11.77;83.78;96982.23;1762052;81;20988;-83
2022/04/01 00:10:42;;;;;;;23.98;11.15;;;;;;;11.79;84.69;96987.70;1730396;83;21031;-80
2022/04/01 00:13:08;;;;;;;26.80;11.10;;;;;;;11.83;84.15;96989.66;1731577;81;21555;-80
2022/04/01 00:15:36;;;;;;;31.80;11.33;;;;;;;11.88;82.84;96987.60;1753790;81;21018;-82
2022/04/01 00:18:03;;;;;;;22.42;9.88;;;;;;;11.83;83.64;96985.27;1767540;81;20967;-82
2022/04/01 00:20:30;;;;;;;25.50;10.93;;;;;;;11.86;84.69;96992.08;1718283;82;20999;-80
2022/04/01 00:22:57;;;;;;;20.00;9.78;;;;;;;11.85;83.68;96998.20;1733168;82;21004;-82
2022/04/01 00:25:24;;;;;;;20.75;10.08;;;;;;;11.85;83.45;96996.89;1730611;82;20988;-82
2022/04/01 00:27:51;;;;;;;47.98;22.02;;;;;;;11.85;83.99;96994.30;1734097;82;21028;-81
2022/04/01 00:30:19;;;;;;;61.85;27.93;;;;;;;11.86;83.97;96995.98;1765797;81;20935;-79
2022/04/01 00:32:45;;;;;;;56.88;26.80;;;;;;;11.87;84.41;96996.33;1770414;81;20972;-83
2022/04/01 00:35:12;;;;;;;47.00;19.62;;;;;;;11.87;83.86;96991.13;1766495;81;21507;-81
2022/04/01 00:37:40;;;;;;;34.90;16.40;;;;;;;11.87;82.87;96992.42;1733050;82;20972;-82
2022/04/01 00:40:10;;;;;;;61.25;28.20;;;;;;;11.86;84.38;96989.47;1729919;83;20952;-81
2022/04/01 00:42:36;;;;;;;42.27;17.42;;;;;;;11.83;84.10;96998.28;1721775;82;21031;-79
2022/04/01 00:45:04;;;;;;;43.70;21.40;;;;;;;11.79;82.76;97002.02;1730014;83;21000;-79
2022/04/01 00:47:31;;;;;;;43.75;20.85;;;;;;;11.75;84.39;96999.24;1731529;83;21023;-81
2022/04/01 00:49:58;;;;;;;44.73;21.95;;;;;;;11.73;84.54;96998.03;1730437;83;20996;-80
2022/04/01 00:52:25;;;;;;;27.65;12.73;;;;;;;11.71;84.70;96992.56;1722285;82;20976;-81
2022/04/01 00:54:51;;;;;;;25.95;11.83;;;;;;;11.71;83.92;96988.66;1767394;80;20951;-82
2022/04/01 00:57:18;;;;;;;34.70;16.70;;;;;;;11.72;85.42;96983.36;1728451;83;21523;-80
2022/04/01 00:59:48;;;;;;;42.08;18.32;;;;;;;11.71;84.95;96980.38;1727309;83;20956;-79
2022/04/01 01:02:15;;;;;;;23.15;11.12;;;;;;;11.72;84.12;96985.97;1725164;83;20971;-82
2022/04/01 01:04:41;;;;;;;22.27;9.23;;;;;;;11.69;82.52;96982.24;1712637;83;21737;-81
2022/04/01 01:07:08;;;;;;;27.55;11.15;;;;;;;11.70;84.25;96983.09;1699073;82;21004;-80
2022/04/01 01:09:35;;;;;;;36.95;14.00;;;;;;;11.68;85.28;96981.06;1709732;84;20967;-82
2022/04/01 01:12:03;;;;;;;20.40;9.50;;;;;;;11.69;84.03;96987.45;1701122;84;21115;-79
2022/04/01 01:14:37;;;;;;;25.23;10.13;;;;;;;11.70;83.00;96985.70;1691679;84;20963;-81
2022/04/01 01:17:11;;;;;;;27.15;11.73;;;;;;;11.68;83.66;96987.09;1689358;82;21011;-80
2022/04/01 01:19:39;;;;;;;26.50;11.10;;;;;;;11.71;84.16;96989.48;1697828;82;21023;-79
2022/04/01 01:22:06;;;;;;;21.68;10.45;;;;;;;11.72;85.18;96997.68;1704020;84;21010;-81
2022/04/01 01:24:38;;;;;;;21.62;10.30;;;;;;;11.73;84.44;96992.83;1710003;84;20975;-86
2022/04/01 01:27:07;;;;;;;23.27;11.05;;;;;;;11.73;83.45;96994.12;1703222;82;21003;-86
2022/04/01 01:29:40;;;;;;;25.30;11.63;;;;;;;11.71;82.40;96988.19;1697861;84;20999;-81
2022/04/01 01:32:12;;;;;;;24.92;11.73;;;;;;;11.64;83.55;96983.02;1709151;82;21463;-83
2022/04/01 01:34:40;;;;;;;26.10;10.08;;;;;;;11.62;83.87;96983.58;1682831;82;20979;-81
2022/04/01 01:37:10;;;;;;;23.87;10.38;;;;;;;11.59;83.56;96977.25;1699446;84;20988;-79
2022/04/01 01:39:36;;;;;;;23.00;10.23;;;;;;;11.57;83.14;96978.29;1679985;84;21007;-83
2022/04/01 01:42:03;;;;;;;29.52;11.00;;;;;;;11.53;83.62;96978.94;1709589;84;20984;-79
2022/04/01 01:44:29;;;;;;;23.67;10.55;;;;;;;11.52;84.26;96983.80;1698952;84;21007;-79
2022/04/01 01:46:57;;;;;;;27.07;11.73;;;;;;;11.52;84.09;96976.81;1708946;84;21492;-79
2022/04/01 01:49:23;;;;;;;25.55;9.65;;;;;;;11.50;83.84;96972.17;1701076;84;21032;-81
2022/04/01 01:54:45;;;;;;;24.95;10.50;;;;;;;11.47;84.38;96980.63;1682228;84;21024;-81
2022/04/01 01:57:18;;;;;;;20.23;10.53;;;;;;;11.45;84.91;96987.70;1689334;84;21004;-79
2022/04/01 01:59:45;;;;;;;24.00;10.13;;;;;;;11.45;84.26;96992.42;1686189;85;20964;-81
2022/04/01 02:02:12;;;;;;;29.90;13.50;;;;;;;11.48;83.99;96987.48;1678835;83;21492;-79
2022/04/01 02:04:40;;;;;;;23.20;11.57;;;;;;;11.51;85.68;96986.84;1681714;84;20980;-79
2022/04/01 02:07:10;;;;;;;26.12;11.20;;;;;;;11.54;85.04;96993.64;1678252;84;21056;-80
2022/04/01 02:09:40;;;;;;;18.70;9.73;;;;;;;11.54;84.82;96988.44;1687400;84;21488;-78
2022/04/01 02:12:07;;;;;;;22.82;10.35;;;;;;;11.55;86.40;96996.59;1689485;83;21049;-79
2022/04/01 02:14:36;;;;;;;34.95;18.32;;;;;;;11.55;85.19;96999.20;1688101;84;20953;-80
2022/04/01 02:17:03;;;;;;;34.73;16.87;;;;;;;11.58;84.14;97015.94;1686308;84;21012;-79
2022/04/01 02:19:31;;;;;;;39.92;19.65;;;;;;;11.54;85.73;97005.35;1691108;84;20950;-79
2022/04/01 02:21:58;;;;;;;29.23;14.47;;;;;;;11.55;85.32;97005.70;1683511;84;21572;-80
2022/04/01 02:24:26;;;;;;;27.10;13.58;;;;;;;11.53;85.82;97003.19;1691109;85;21012;-78
2022/04/01 02:26:53;;;;;;;32.17;16.67;;;;;;;11.55;84.69;96992.69;1664246;85;21004;-79
2022/04/01 02:29:22;;;;;;;38.70;20.92;;;;;;;11.50;86.50;96988.26;1691489;84;21059;-79
2022/04/01 02:32:07;;;;;;;40.95;20.37;;;;;;;11.51;86.51;97005.05;1678128;84;21015;-83
2022/04/01 02:34:39;;;;;;;42.88;21.45;;;;;;;11.48;86.87;97001.36;1642191;84;21008;-82
2022/04/01 02:37:06;;;;;;;28.02;14.70;;;;;;;11.47;86.77;97002.27;1693122;84;21004;-78
2022/04/01 02:39:33;;;;;;;27.75;13.30;;;;;;;11.45;86.17;97005.91;1674100;85;21053;-80
2022/04/01 02:41:59;;;;;;;25.92;13.25;;;;;;;11.42;85.58;97001.73;1665354;83;21079;-80
2022/04/01 02:44:27;;;;;;;32.83;15.90;;;;;;;11.41;86.80;97002.66;1689063;83;20988;-82
2022/04/01 02:46:54;;;;;;;29.10;15.88;;;;;;;11.40;86.58;97007.50;1686587;84;21055;-80
2022/04/01 02:49:21;;;;;;;31.52;15.78;;;;;;;11.35;86.75;96999.96;1668598;84;21051;-79
2022/04/01 02:51:58;;;;;;;27.98;14.90;;;;;;;11.32;87.88;96990.20;1682120;84;20996;-81
2022/04/01 02:54:26;;;;;;;33.08;15.00;;;;;;;11.26;87.17;96982.78;1686017;84;21016;-79
2022/04/01 02:56:54;;;;;;;24.12;12.23;;;;;;;11.18;88.51;96990.22;1690306;84;20988;-79
2022/04/01 02:59:21;;;;;;;28.98;11.75;;;;;;;11.13;87.33;96991.81;1682451;84;21500;-80
2022/04/01 03:01:48;;;;;;;23.30;11.12;;;;;;;11.06;84.63;96984.86;1689039;83;20981;-79
2022/04/01 03:04:15;;;;;;;23.70;12.00;;;;;;;11.02;86.15;96976.88;1680018;83;21016;-80
2022/04/01 03:06:44;;;;;;;25.57;12.28;;;;;;;11.00;86.30;96981.33;1685278;85;21007;-80
2022/04/01 03:09:12;;;;;;;23.22;12.45;;;;;;;10.99;86.33;96980.13;1693487;83;21075;-81
2022/04/01 03:11:43;;;;;;;33.80;12.88;;;;;;;10.99;86.32;96983.55;1692478;83;21016;-78
2022/04/01 03:14:12;;;;;;;32.93;13.75;;;;;;;10.98;86.84;96975.36;1684644;83;21003;-79
2022/04/01 03:16:56;;;;;;;29.07;12.07;;;;;;;11.00;88.03;96976.58;1685598;84;21000;-80
2022/04/01 03:19:25;;;;;;;26.80;12.90;;;;;;;11.04;86.69;96969.81;1688228;84;20976;-81
2022/04/01 03:21:52;;;;;;;36.48;13.28;;;;;;;11.08;86.78;96966.54;1682529;84;20984;-78
2022/04/01 03:24:19;;;;;;;30.77;14.45;;;;;;;11.14;87.67;96969.63;1686649;84;20984;-80
2022/04/01 03:26:47;;;;;;;40.10;20.00;;;;;;;11.19;87.27;96971.93;1691861;83;20973;-80
2022/04/01 03:29:14;;;;;;;32.53;15.03;;;;;;;11.25;88.48;96966.82;1686669;84;21574;-79
2022/04/01 03:31:42;;;;;;;31.00;14.18;;;;;;;11.33;88.69;96968.48;1687921;83;20992;-80
2022/04/01 03:34:08;;;;;;;29.63;13.28;;;;;;;11.31;87.92;96968.56;1691649;84;20925;-80
2022/04/01 03:36:35;;;;;;;24.98;12.60;;;;;;;11.30;87.53;96975.16;1707085;83;20977;-80
2022/04/01 03:39:04;;;;;;;23.98;11.35;;;;;;;11.26;86.95;96972.38;1725477;82;20971;-79
2022/04/01 03:41:39;;;;;;;25.95;12.23;;;;;;;11.16;86.05;96970.84;1709786;83;20965;-81
2022/04/01 03:44:09;;;;;;;26.65;12.55;;;;;;;11.12;86.27;96983.63;1705196;83;20992;-82
2022/04/01 03:46:54;;;;;;;23.65;11.78;;;;;;;11.08;88.07;96979.54;1705315;82;21070;-80
2022/04/01 03:49:23;;;;;;;26.33;14.15;;;;;;;11.01;85.50;96984.29;1720536;81;21433;-82
2022/04/01 03:51:51;;;;;;;30.85;13.85;;;;;;;10.95;86.97;96991.98;1710449;82;21007;-81
2022/04/01 03:54:19;;;;;;;29.42;14.70;;;;;;;10.92;87.31;96990.03;1714267;82;21488;-81
2022/04/01 03:57:00;;;;;;;29.67;13.85;;;;;;;10.89;86.15;96993.66;1714857;83;20961;-82
2022/04/01 03:59:40;;;;;;;26.95;11.80;;;;;;;10.86;87.35;96996.46;1704994;83;20976;-82
2022/04/01 04:02:01;;;;;;;21.48;11.30;;;;;;;10.84;87.29;96990.95;1709397;82;21004;-83
2022/04/01 04:04:27;;;;;;;28.55;12.37;;;;;;;10.83;87.16;96993.20;1721215;82;21020;-82
2022/04/01 04:06:57;;;;;;;28.50;12.55;;;;;;;10.78;87.74;96993.45;1720683;83;21468;-84
2022/04/01 04:09:25;;;;;;;26.35;12.10;;;;;;;10.74;88.87;96995.86;1722791;81;21417;-81
2022/04/01 04:11:51;;;;;;;30.52;12.18;;;;;;;10.68;88.86;96989.73;1700234;83;21044;-85
2022/04/01 04:14:21;;;;;;;26.45;12.30;;;;;;;10.64;89.33;96990.37;1721556;83;21633;-82
2022/04/01 04:16:48;;;;;;;27.15;11.50;;;;;;;10.60;88.26;96996.67;1703100;83;20925;-85
2022/04/01 04:19:49;;;;;;;21.75;11.35;;;;;;;10.57;88.11;96983.05;1708740;82;20980;-80
2022/04/01 04:22:27;;;;;;;22.50;10.28;;;;;;;10.60;88.75;96993.25;1709967;82;21036;-82
2022/04/01 04:24:58;;;;;;;22.87;10.95;;;;;;;10.62;87.55;96983.59;1722874;82;20984;-83
2022/04/01 04:27:29;;;;;;;33.15;11.88;;;;;;;10.66;88.57;96983.79;1709825;81;20980;-79
2022/04/01 04:30:03;;;;;;;24.00;11.90;;;;;;;10.72;89.19;96983.42;1718188;83;21462;-80
2022/04/01 04:32:57;;;;;;;30.50;12.90;;;;;;;10.79;89.03;96982.62;1723171;81;20968;-80
2022/04/01 04:35:26;;;;;;;26.73;14.10;;;;;;;10.81;89.31;96980.29;1692785;84;21145;-83
2022/04/01 04:37:56;;;;;;;23.02;11.33;;;;;;;10.84;88.30;96974.92;1698111;83;20968;-81
2022/04/01 04:40:25;;;;;;;42.23;17.17;;;;;;;10.84;88.30;96967.13;1711030;83;20957;-83
2022/04/01 04:42:54;;;;;;;35.90;17.48;;;;;;;10.86;88.51;96973.06;1715189;82;21004;-84
2022/04/01 04:45:25;;;;;;;48.98;26.00;;;;;;;10.92;88.77;96975.30;1713687;83;21017;-83
2022/04/01 04:47:54;;;;;;;45.20;21.60;;;;;;;10.98;89.34;96975.83;1724985;82;20964;-82
2022/04/01 04:50:22;;;;;;;77.87;38.30;;;;;;;11.07;89.57;96976.59;1698036;83;21005;-84
2022/04/01 04:52:51;;;;;;;107.10;58.02;;;;;;;11.10;87.78;96982.88;1730833;83;21020;-81
2022/04/01 04:55:19;;;;;;;41.08;23.32;;;;;;;11.13;89.53;96986.61;1757363;81;20987;-83
2022/04/01 04:57:53;;;;;;;36.38;18.67;;;;;;;11.15;89.06;96990.78;1755715;81;21066;-81
2022/04/01 05:00:21;;;;;;;36.98;16.73;;;;;;;11.16;88.49;96986.44;1755116;81;21022;-81
2022/04/01 05:03:16;;;;;;;29.95;15.38;;;;;;;11.17;87.93;96988.09;1768695;81;21014;-80
2022/04/01 05:05:54;;;;;;;33.10;16.85;;;;;;;11.17;87.39;96978.99;1727509;83;21027;-83
2022/04/01 05:08:40;;;;;;;28.00;14.05;;;;;;;11.18;88.67;96977.22;1733161;82;21063;-80
2022/04/01 05:11:23;;;;;;;33.05;15.48;;;;;;;11.20;89.29;96987.92;1701407;83;20995;-82
2022/04/01 05:14:38;;;;;;;33.88;16.07;;;;;;;11.18;88.18;96986.32;1747805;82;21027;-82
2022/04/01 05:17:10;;;;;;;41.18;20.92;;;;;;;11.19;88.17;96984.94;1733673;82;21070;-80
2022/04/01 05:19:40;;;;;;;45.90;22.62;;;;;;;11.15;88.09;96968.67;1725589;82;21463;-83
2022/04/01 05:22:09;;;;;;;40.50;20.68;;;;;;;11.16;87.83;96964.33;1711746;83;20999;-85
2022/04/01 05:24:43;;;;;;;38.13;17.45;;;;;;;11.22;88.30;96970.45;1725010;83;21002;-80
2022/04/01 05:27:23;;;;;;;41.05;18.32;;;;;;;11.24;87.27;96956.89;1765927;81;20972;-80
2022/04/01 05:30:13;;;;;;;66.85;26.07;;;;;;;11.27;86.63;96962.36;1724661;82;21067;-78
2022/04/01 05:32:40;;;;;;;57.80;24.18;;;;;;;11.29;87.86;96975.63;1712335;83;20992;-84
2022/04/01 05:35:09;;;;;;;38.48;18.30;;;;;;;11.32;88.85;96975.89;1715145;83;21479;-80
2022/04/01 05:37:37;;;;;;;28.65;14.80;;;;;;;11.37;87.06;96982.14;1734163;82;21012;-83
2022/04/01 05:40:05;;;;;;;28.62;13.95;;;;;;;11.38;87.60;96978.14;1729184;82;20968;-82
2022/04/01 05:42:33;;;;;;;31.27;13.48;;;;;;;11.41;88.43;96970.13;1763367;81;20994;-79
2022/04/01 05:45:20;;;;;;;24.63;12.47;;;;;;;11.46;88.99;96970.70;1689489;84;21032;-81
2022/04/01 05:47:48;;;;;;;33.60;13.75;;;;;;;11.48;87.08;96972.73;1668230;85;21003;-80
2022/04/01 05:50:20;;;;;;;30.62;12.58;;;;;;;11.48;87.48;96970.58;1721346;81;21144;-82
2022/04/01 05:52:49;;;;;;;33.67;18.80;;;;;;;11.46;87.60;96971.14;1761660;81;20975;-80
2022/04/01 05:55:19;;;;;;;36.00;17.48;;;;;;;11.42;87.93;96964.45;1715427;83;20964;-79
2022/04/01 05:57:46;;;;;;;36.13;19.65;;;;;;;11.40;88.49;96958.52;1703845;83;20964;-81
2022/04/01 06:00:14;;;;;;;47.03;21.93;;;;;;;11.43;87.24;96972.17;1725062;83;21480;-82
2022/04/01 06:03:16;;;;;;;38.28;19.50;;;;;;;11.42;88.98;96973.13;1725784;82;21502;-79
2022/04/01 06:05:55;;;;;;;40.38;19.30;;;;;;;11.46;86.47;96972.44;1722536;82;20921;-82
2022/04/01 06:08:58;;;;;;;38.55;15.80;;;;;;;11.50;85.90;96966.14;1714059;82;21000;-80
2022/04/01 06:12:00;;;;;;;38.05;16.73;;;;;;;11.48;86.62;96961.03;1722582;83;21131;-79
2022/04/01 06:15:22;;;;;;;37.28;15.53;;;;;;;11.51;89.04;96962.59;1697185;82;20999;-83
2022/04/01 06:18:24;;;;;;;30.17;13.80;;;;;;;11.58;88.49;96963.89;1727436;82;21048;-82
2022/04/01 06:20:54;;;;;;;38.23;15.53;;;;;;;11.67;86.79;96952.87;1725615;82;20979;-77
2022/04/01 06:23:34;;;;;;;39.42;17.35;;;;;;;11.70;86.75;96943.58;1719083;82;20968;-77
2022/04/01 06:26:01;;;;;;;42.93;16.65;;;;;;;11.77;87.04;96950.52;1720142;82;20984;-84
2022/04/01 06:28:31;;;;;;;42.00;17.07;;;;;;;11.87;87.07;96953.38;1705871;82;21507;-83
2022/04/01 06:31:06;;;;;;;41.58;16.90;;;;;;;12.00;87.06;96958.20;1724601;81;20964;-84
2022/04/01 06:34:00;;;;;;;37.90;16.45;;;;;;;12.11;87.57;96954.88;1720899;83;21362;-82
2022/04/01 06:36:41;;;;;;;29.72;15.23;;;;;;;12.27;86.62;96954.70;1719831;82;20992;-82
2022/04/01 06:39:10;;;;;;;45.52;17.32;;;;;;;12.39;86.88;96946.07;1672045;83;21057;-81
2022/04/01 06:41:47;;;;;;;38.15;17.37;;;;;;;12.57;87.38;96953.13;1721209;83;20972;-80
2022/04/01 06:44:34;;;;;;;35.15;15.68;;;;;;;12.77;87.27;96944.43;1723939;82;21185;-80
2022/04/01 06:47:18;;;;;;;25.57;11.70;;;;;;;13.01;86.63;96946.67;1755849;80;21056;-81
2022/04/01 06:49:46;;;;;;;26.10;12.15;;;;;;;13.21;85.32;96947.89;1698692;83;20973;-81
2022/04/01 06:52:33;;;;;;;23.67;11.90;;;;;;;13.36;84.68;96943.39;1676840;82;38435;-79
2022/04/01 06:55:08;;;;;;;25.08;11.73;;;;;;;13.58;83.53;96945.78;1691125;82;20972;-80
2022/04/01 06:57:43;;;;;;;22.87;9.73;;;;;;;13.69;83.25;96939.33;1663449;82;20968;-77
2022/04/01 07:00:22;;;;;;;27.77;10.13;;;;;;;13.87;83.25;96946.30;1717356;82;21004;-76
2022/04/01 07:02:49;;;;;;;20.30;9.95;;;;;;;14.13;82.49;96941.30;1716184;81;21000;-81
2022/04/01 07:05:16;;;;;;;21.70;10.18;;;;;;;14.29;81.59;96933.64;1716607;81;21923;-78
2022/04/01 07:07:42;;;;;;;23.60;9.40;;;;;;;14.41;81.19;96943.65;1716037;81;21018;-77
2022/04/01 07:10:12;;;;;;;22.15;9.08;;;;;;;14.52;78.97;96943.66;1717299;81;21040;-82
2022/04/01 07:12:39;;;;;;;23.38;9.30;;;;;;;14.67;79.50;96942.53;1718968;81;21538;-76
2022/04/01 07:15:08;;;;;;;22.10;9.85;;;;;;;14.78;79.20;96937.81;1718338;82;21056;-77
2022/04/01 07:17:35;;;;;;;23.35;9.25;;;;;;;14.95;79.15;96941.73;1711856;82;20993;-77
2022/04/01 07:20:03;;;;;;;16.15;9.58;;;;;;;15.09;77.56;96931.51;1716423;81;21004;-81
2022/04/01 07:22:30;;;;;;;19.52;9.95;;;;;;;15.24;77.63;96942.55;1722201;81;21581;-77
2022/04/01 07:24:57;;;;;;;22.15;9.65;;;;;;;15.31;77.18;96938.51;1719251;82;21023;-77
2022/04/01 07:27:23;;;;;;;19.80;9.45;;;;;;;15.37;77.29;96933.27;1714953;82;20953;-80
2022/04/01 07:29:50;;;;;;;20.92;8.55;;;;;;;15.43;76.43;96932.78;1709457;82;20988;-80
2022/04/01 07:32:35;;;;;;;24.95;8.78;;;;;;;15.54;76.51;96928.84;1718387;82;20962;-80
2022/04/01 07:34:48;;;;;;;15.55;7.85;;;;;;;15.55;75.09;96930.49;1712818;82;21479;-76
2022/04/01 07:37:15;;;;;;;16.12;7.33;;;;;;;15.57;75.21;96927.76;1714232;81;20996;-80
2022/04/01 07:39:42;;;;;;;23.25;7.97;;;;;;;15.61;74.99;96924.77;1718245;82;20953;-81
2022/04/01 07:42:08;;;;;;;16.10;7.85;;;;;;;15.73;74.44;96920.36;1720994;82;21797;-80
2022/04/01 07:44:35;;;;;;;24.77;7.97;;;;;;;15.87;75.50;96924.00;1684414;83;21019;-79
2022/04/01 07:47:02;;;;;;;18.42;7.53;;;;;;;15.96;74.66;96922.44;1717550;82;21789;-81
2022/04/01 07:49:29;;;;;;;22.70;7.60;;;;;;;16.12;74.42;96929.05;1686267;83;21075;-82
2022/04/01 07:51:55;;;;;;;13.75;7.22;;;;;;;16.27;75.03;96922.06;1718878;82;21937;-80
2022/04/01 07:54:22;;;;;;;19.65;8.40;;;;;;;16.37;73.39;96921.28;1715384;82;20995;-80
2022/04/01 07:56:48;;;;;;;19.15;7.72;;;;;;;16.51;71.19;96926.20;1701513;82;20997;-79
2022/04/01 07:59:15;;;;;;;23.87;7.53;;;;;;;16.66;70.79;96918.84;1720347;82;21012;-76
2022/04/01 08:01:42;;;;;;;18.75;7.55;;;;;;;16.75;70.51;96916.77;1718983;82;21011;-81
2022/04/01 08:04:09;;;;;;;18.67;7.80;;;;;;;16.90;70.71;96922.03;1716425;82;21020;-79
2022/04/01 08:06:36;;;;;;;13.95;6.65;;;;;;;17.04;70.68;96920.84;1713636;82;21036;-81
2022/04/01 08:09:03;;;;;;;17.52;7.10;;;;;;;17.21;69.40;96928.59;1719483;81;20993;-81
2022/04/01 08:11:29;;;;;;;20.45;7.92;;;;;;;17.42;68.96;96925.05;1712273;82;20933;-79
2022/04/01 08:13:57;;;;;;;17.75;6.78;;;;;;;17.59;68.52;96918.34;1712975;81;20992;-79
2022/04/01 08:16:24;;;;;;;16.45;6.60;;;;;;;17.77;67.41;96920.63;1716271;81;20991;-79
2022/04/01 08:18:51;;;;;;;15.32;7.40;;;;;;;17.93;66.71;96928.50;1714944;81;21523;-84
2022/04/01 08:21:18;;;;;;;23.18;7.62;;;;;;;18.00;63.96;96919.91;1707915;82;21035;-82
2022/04/01 08:23:45;;;;;;;17.07;7.60;;;;;;;18.08;66.55;96929.73;1717224;82;21460;-83
2022/04/01 08:26:12;;;;;;;18.45;7.37;;;;;;;18.09;66.34;96931.41;1719046;81;20980;-78
2022/04/01 08:28:40;;;;;;;21.27;9.10;;;;;;;18.07;64.77;96928.91;1711235;82;21496;-81
2022/04/01 08:31:09;;;;;;;21.23;9.03;;;;;;;18.16;65.92;96926.41;1716713;81;20996;-81
2022/04/01 08:33:37;;;;;;;17.90;6.62;;;;;;;18.12;62.69;96926.35;1719117;82;21045;-78
2022/04/01 08:36:04;;;;;;;15.95;6.10;;;;;;;18.14;62.40;96928.36;1712834;82;21024;-79
2022/04/01 08:38:31;;;;;;;20.00;5.85;;;;;;;18.19;63.21;96927.47;1699579;82;20992;-82
2022/04/01 08:40:58;;;;;;;15.38;6.28;;;;;;;18.17;61.89;96933.34;1691941;82;21041;-80
2022/04/01 08:43:31;;;;;;;14.58;5.00;;;;;;;18.17;63.22;96925.46;1726016;82;21490;-81
2022/04/01 08:46:03;;;;;;;18.12;4.90;;;;;;;18.19;62.29;96928.78;1724178;82;20972;-81
2022/04/01 08:48:31;;;;;;;18.67;5.25;;;;;;;18.30;62.24;96928.62;1721985;82;20956;-78
2022/04/01 08:50:58;;;;;;;14.83;6.65;;;;;;;18.37;62.09;96921.84;1723299;81;21010;-78
2022/04/01 08:53:25;;;;;;;12.45;5.20;;;;;;;18.42;61.97;96914.37;1717831;81;21012;-79
2022/04/01 08:55:55;;;;;;;10.60;4.83;;;;;;;18.53;61.35;96912.55;1718762;81;20997;-77
2022/04/01 08:58:23;;;;;;;10.32;5.62;;;;;;;18.63;61.66;96917.30;1714996;81;21019;-80
2022/04/01 09:00:51;;;;;;;15.25;5.50;;;;;;;18.78;62.10;96914.56;1717522;81;21000;-77
2022/04/01 09:03:21;;;;;;;12.07;5.28;;;;;;;18.83;60.22;96913.66;1718116;81;21915;-80
2022/04/01 09:05:56;;;;;;;19.00;4.80;;;;;;;18.95;61.44;96913.49;1723307;81;20964;-79
2022/04/01 09:08:27;;;;;;;14.10;5.37;;;;;;;19.02;61.09;96906.66;1705344;82;21011;-78
2022/04/01 09:11:05;;;;;;;16.95;6.10;;;;;;;19.07;60.47;96904.43;1709139;83;22094;-78
2022/04/01 09:13:46;;;;;;;11.63;5.53;;;;;;;19.19;60.56;96895.86;1707501;83;21013;-79
2022/04/01 09:16:32;;;;;;;20.90;6.12;;;;;;;19.28;60.68;96894.49;1711683;82;21058;-80
2022/04/01 09:19:05;;;;;;;14.45;5.67;;;;;;;19.28;60.39;96885.27;1712712;82;20989;-79
2022/04/01 09:21:47;;;;;;;17.37;5.60;;;;;;;19.38;60.08;96897.58;1709467;82;20995;-81
2022/04/01 09:24:07;;;;;;;32.33;6.00;;;;;;;19.42;59.10;96900.25;1692129;83;21038;-83
2022/04/01 09:26:37;;;;;;;30.52;5.90;;;;;;;19.51;58.71;96895.39;1704245;83;21444;-81
2022/04/01 09:29:07;;;;;;;17.15;5.67;;;;;;;19.57;58.97;96894.80;1705788;82;21036;-79
2022/04/01 09:31:37;;;;;;;19.77;5.90;;;;;;;19.65;59.31;96898.83;1710761;82;21068;-79
2022/04/01 09:34:06;;;;;;;29.23;6.87;;;;;;;19.67;58.39;96898.19;1714118;82;20999;-77
2022/04/01 09:36:36;;;;;;;20.37;6.35;;;;;;;19.72;58.37;96900.93;1708173;83;20981;-77
2022/04/01 09:39:18;;;;;;;17.30;5.55;;;;;;;19.75;58.52;96906.70;1709916;82;21436;-79
2022/04/01 09:41:49;;;;;;;19.77;5.15;;;;;;;19.74;57.25;96915.61;1708613;82;20975;-80
2022/04/01 09:44:26;;;;;;;23.02;5.58;;;;;;;19.74;57.87;96914.80;1710871;82;21486;-80
2022/04/01 09:46:59;;;;;;;20.35;5.37;;;;;;;19.63;55.77;96911.33;1702270;82;21036;-80
2022/04/01 09:49:36;;;;;;;19.02;5.47;;;;;;;19.55;55.70;96913.06;1694832;82;21000;-78
2022/04/01 09:52:10;;;;;;;20.82;5.28;;;;;;;19.38;56.05;96918.65;1686287;83;20971;-80
2022/04/01 09:54:49;;;;;;;14.15;4.40;;;;;;;19.33;56.99;96930.92;1707085;82;21044;-81
2022/04/01 09:57:19;;;;;;;22.90;5.15;;;;;;;19.29;57.07;96930.88;1700857;83;20948;-80
2022/04/01 09:59:48;;;;;;;20.02;5.33;;;;;;;19.21;56.55;96941.31;1665060;84;21011;-79
2022/04/01 10:02:15;;;;;;;34.27;5.97;;;;;;;19.13;56.98;96942.03;1705812;82;21019;-78
2022/04/01 10:04:42;;;;;;;19.85;4.45;;;;;;;19.11;57.12;96949.75;1704482;83;21031;-78
2022/04/01 10:07:10;;;;;;;15.32;4.67;;;;;;;18.90;56.90;96960.47;1725160;81;21003;-82
2022/04/01 10:09:38;;;;;;;24.52;5.55;;;;;;;18.72;57.57;96969.09;1722065;82;21016;-80
2022/04/01 10:12:10;;;;;;;17.25;4.67;;;;;;;18.33;59.20;96978.82;1719196;81;20945;-79
2022/04/01 10:14:40;;;;;;;33.55;6.03;;;;;;;18.05;60.57;96978.17;1716713;81;21527;-76
2022/04/01 10:17:11;;;;;;;21.97;5.60;;;;;;;17.74;61.63;96977.88;1710074;81;21050;-80
2022/04/01 10:19:41;;;;;;;27.05;5.58;;;;;;;17.50;64.18;96990.87;1718099;81;20978;-79
2022/04/01 10:22:16;;;;;;;21.75;5.50;;;;;;;17.16;63.51;96983.28;1719318;81;21000;-82
2022/04/01 10:25:18;;;;;;;22.07;5.55;;;;;;;16.88;64.55;96993.50;1719058;81;21025;-83
2022/04/01 10:27:52;;;;;;;25.20;5.08;;;;;;;16.68;64.59;96996.45;1720092;81;20996;-82
2022/04/01 10:30:21;;;;;;;13.50;3.72;;;;;;;16.32;66.47;96993.78;1716989;81;21047;-79
2022/04/01 10:32:48;;;;;;;17.57;3.30;;;;;;;16.17;65.13;96989.78;1697725;81;21516;-81
2022/04/01 10:35:28;;;;;;;21.07;3.62;;;;;;;15.83;66.01;96990.70;1711687;81;20980;-80
2022/04/01 10:38:09;;;;;;;15.32;3.60;;;;;;;15.58;66.18;96987.88;1671377;84;20972;-79
2022/04/01 10:40:41;;;;;;;12.00;3.02;;;;;;;15.24;67.51;96995.75;1701825;82;21445;-79
2022/04/01 10:43:25;;;;;;;11.15;2.65;;;;;;;15.03;67.29;96992.99;1703099;84;20972;-77
2022/04/01 10:46:14;;;;;;;12.50;2.87;;;;;;;14.88;68.24;96995.47;1705034;83;21005;-83
2022/04/01 10:52:14;;;;;;;14.75;2.75;;;;;;;14.82;69.68;96978.48;1713156;82;21040;-90
2022/04/01 10:54:43;;;;;;;9.20;2.42;;;;;;;14.87;69.14;96980.73;1698948;82;21226;-90
2022/04/01 10:57:28;;;;;;;13.00;2.62;;;;;;;14.93;70.10;96971.11;1710087;83;20976;-90
2022/04/01 11:00:03;;;;;;;9.73;2.42;;;;;;;15.05;71.20;96967.55;1731353;81;21107;-88
2022/04/01 11:02:30;;;;;;;11.00;2.33;;;;;;;15.21;70.33;96964.57;1728668;81;21024;-93
2022/04/01 11:05:00;;;;;;;13.30;2.40;;;;;;;15.40;69.44;96960.05;1732784;82;21026;-83
2022/04/01 11:07:33;;;;;;;14.43;3.52;;;;;;;15.52;69.72;96945.16;1729138;82;21007;-92
2022/04/01 11:10:04;;;;;;;13.93;2.92;;;;;;;15.69;69.86;96946.41;1707477;82;20980;-91
2022/04/01 11:12:42;;;;;;;6.58;2.35;;;;;;;15.83;68.65;96935.69;1720858;81;20944;-92
2022/04/01 11:15:11;;;;;;;10.72;2.58;;;;;;;16.04;68.19;96937.05;1715367;82;21496;-84
2022/04/01 11:17:52;;;;;;;10.98;2.55;;;;;;;16.20;65.93;96934.00;1715428;82;21113;-89
2022/04/01 11:20:31;;;;;;;9.65;2.12;;;;;;;16.44;66.95;96948.67;1727549;80;20944;-89
2022/04/01 11:23:04;;;;;;;12.93;3.45;;;;;;;16.62;66.93;96946.30;1730888;82;20992;-85
2022/04/01 11:25:38;;;;;;;14.75;3.00;;;;;;;16.77;65.70;96952.89;1724487;81;21000;-88
2022/04/01 11:28:11;;;;;;;11.43;2.72;;;;;;;17.01;66.28;96939.96;1717642;81;20991;-92
2022/04/01 11:30:51;;;;;;;10.88;2.83;;;;;;;17.16;65.78;96940.45;1723524;82;20972;-88
2022/04/01 11:33:20;;;;;;;19.90;3.30;;;;;;;17.22;63.01;96935.49;1712868;83;21004;-92
2022/04/01 11:35:53;;;;;;;19.12;3.85;;;;;;;17.22;63.55;96928.92;1730955;81;21578;-82
2022/04/01 11:38:22;;;;;;;;;;;;;;;17.26;64.24;96930.32;1723107;81;20925;-87
2022/04/01 11:40:56;;;;;;;11.93;2.87;;;;;;;17.40;64.08;96908.59;1723771;81;20107;-89
2022/04/01 11:43:25;;;;;;;11.40;3.25;;;;;;;17.57;63.53;96901.88;1708421;83;21075;-86
2022/04/01 11:45:57;;;;;;;15.70;2.33;;;;;;;17.74;63.03;96887.22;1720497;81;20989;-90
2022/04/01 11:48:34;;;;;;;15.28;3.25;;;;;;;17.92;62.68;96892.16;1708413;84;21845;-81